Time;durP1;ratioP1;P1;durP2;ratioP2;P2;SDS_P1;SDS_P2;PMS_P1;PMS_P2;Temp;Humidity;BMP_temperature;BMP_pressure;BME280_temperature;BME280_humidity;BME280_pressure;Samples;Min_cycle;Max_cycle;Signal;HPM_P1;HPM_P2
2023/09/12 00:00:07;;;;;;;6.83;2.40;;;;;;;19.59;49.26;99663.78;5095102;28;20550;-61
2023/09/12 00:02:33;;;;;;;4.63;2.57;;;;;;;19.67;48.54;99663.34;5094617;28;20663;-61
2023/09/12 00:05:00;;;;;;;4.97;2.33;;;;;;;19.58;48.90;99667.56;5093035;28;20573;-62
2023/09/12 00:07:27;;;;;;;2.63;2.10;;;;;;;19.55;48.75;99665.34;5079729;28;20233;-62
2023/09/12 00:09:54;;;;;;;4.00;2.23;;;;;;;19.51;49.34;99672.31;5094624;28;20662;-62
2023/09/12 00:12:24;;;;;;;3.40;1.93;;;;;;;19.54;49.60;99671.81;5094838;28;20219;-62
2023/09/12 00:14:52;;;;;;;6.00;2.10;;;;;;;19.62;49.63;99674.06;5094726;28;20626;-62
2023/09/12 00:17:19;;;;;;;3.50;2.33;;;;;;;19.66;49.15;99667.94;5088615;28;20206;-62
2023/09/12 00:19:46;;;;;;;4.40;2.60;;;;;;;19.64;49.26;99678.16;5073998;28;20284;-63
2023/09/12 00:22:12;;;;;;;6.50;2.87;;;;;;;19.52;50.41;99674.75;5074284;28;20199;-62
2023/09/12 00:24:39;;;;;;;5.33;2.70;;;;;;;19.55;51.48;99678.81;5074222;28;20224;-62
2023/09/12 00:27:07;;;;;;;5.73;2.50;;;;;;;19.62;52.72;99677.59;5073878;28;20628;-62
2023/09/12 00:29:34;;;;;;;5.03;2.63;;;;;;;19.58;50.88;99681.84;5082085;28;20227;-61
2023/09/12 00:32:02;;;;;;;7.03;2.83;;;;;;;19.59;50.88;99683.47;5094295;28;20214;-61
2023/09/12 00:34:28;;;;;;;5.67;2.57;;;;;;;19.52;51.93;99690.13;5094302;28;20202;-61
2023/09/12 00:36:55;;;;;;;6.37;2.70;;;;;;;19.38;52.23;99684.25;5094120;28;20244;-62
2023/09/12 00:39:22;;;;;;;6.00;2.90;;;;;;;19.23;53.45;99691.25;5094225;28;20252;-61
2023/09/12 00:41:48;;;;;;;4.27;2.70;;;;;;;19.13;53.70;99683.03;5084742;28;20229;-61
2023/09/12 00:44:15;;;;;;;3.30;2.60;;;;;;;19.08;54.41;99683.75;5073535;28;20230;-61
2023/09/12 00:46:44;;;;;;;2.77;2.40;;;;;;;19.03;54.95;99680.22;5073581;28;20203;-61
2023/09/12 00:49:14;;;;;;;6.43;3.00;;;;;;;19.09;55.10;99679.22;5097105;28;20228;-61
2023/09/12 00:51:43;;;;;;;7.70;2.83;;;;;;;18.95;55.14;99688.69;5092374;28;20215;-61
2023/09/12 00:54:10;;;;;;;7.60;3.10;;;;;;;18.79;55.63;99689.50;5092094;28;20722;-61
2023/09/12 00:56:37;;;;;;;2.60;2.40;;;;;;;18.64;56.10;99681.16;5092236;28;20253;-61
2023/09/12 00:59:05;;;;;;;9.73;2.70;;;;;;;18.57;57.19;99685.88;5091623;28;20243;-62
2023/09/12 01:01:33;;;;;;;2.87;2.23;;;;;;;18.64;56.69;99670.41;5090793;28;20197;-61
2023/09/12 01:04:01;;;;;;;3.47;2.57;;;;;;;18.74;56.54;99682.16;5089072;28;20652;-61
2023/09/12 01:06:31;;;;;;;3.33;2.83;;;;;;;18.80;56.45;99689.25;5091436;28;20198;-62
2023/09/12 01:08:58;;;;;;;4.77;2.20;;;;;;;18.83;56.36;99683.38;5072993;28;20747;-61
2023/09/12 01:11:25;;;;;;;5.73;2.50;;;;;;;18.83;56.39;99674.50;5072928;28;20194;-61
2023/09/12 01:13:52;;;;;;;5.90;2.73;;;;;;;18.85;56.48;99683.13;5093160;28;20265;-62
2023/09/12 01:16:18;;;;;;;2.70;2.50;;;;;;;18.82;56.73;99687.13;5093501;28;20193;-61
2023/09/12 01:18:46;;;;;;;6.20;3.23;;;;;;;18.75;56.85;99691.84;5093159;28;20661;-61
2023/09/12 01:21:41;;;;;;;4.80;2.73;;;;;;;18.62;57.33;99691.38;5093249;28;20239;-61
2023/09/12 01:24:34;;;;;;;5.87;2.57;;;;;;;18.44;58.27;99705.84;5086472;28;20180;-61
2023/09/12 01:27:15;;;;;;;5.37;2.57;;;;;;;18.36;58.07;99700.03;5073083;28;20237;-61
2023/09/12 01:29:44;;;;;;;4.60;2.30;;;;;;;18.17;58.75;99709.31;5072951;28;20206;-61
2023/09/12 01:32:11;;;;;;;3.23;2.40;;;;;;;17.89;59.83;99701.22;5072333;28;20225;-61
2023/09/12 01:34:38;;;;;;;6.93;2.90;;;;;;;17.67;60.95;99705.59;5072573;28;20620;-61
2023/09/12 01:37:05;;;;;;;3.23;2.47;;;;;;;17.53;61.93;99698.84;5088644;28;20188;-61
2023/09/12 01:39:32;;;;;;;3.03;2.53;;;;;;;17.55;62.33;99699.41;5092847;28;20248;-62
2023/09/12 01:42:00;;;;;;;7.73;2.80;;;;;;;17.60;62.13;99704.91;5092667;28;20226;-61
2023/09/12 01:44:29;;;;;;;2.40;2.20;;;;;;;17.61;61.73;99701.16;5092718;28;20252;-62
2023/09/12 01:47:01;;;;;;;2.50;2.30;;;;;;;17.54;61.96;99695.94;5092652;28;20191;-61
2023/09/12 01:49:29;;;;;;;4.47;2.50;;;;;;;17.45;62.80;99704.56;5074612;28;20570;-61
2023/09/12 01:51:59;;;;;;;3.37;2.87;;;;;;;17.43;63.10;99704.00;5072606;28;20195;-61
2023/09/12 01:54:27;;;;;;;3.00;2.70;;;;;;;17.47;63.53;99697.91;5072247;28;20188;-61
2023/09/12 01:56:57;;;;;;;3.73;2.70;;;;;;;17.60;62.90;99711.09;5081313;28;20666;-61
2023/09/12 01:59:24;;;;;;;3.17;2.97;;;;;;;17.66;62.91;99717.38;5092630;28;20274;-61
2023/09/12 02:01:52;;;;;;;5.10;2.70;;;;;;;17.68;63.40;99708.03;5092749;28;20208;-61
2023/09/12 02:04:19;;;;;;;3.13;2.80;;;;;;;17.84;62.74;99711.88;5092430;28;20199;-61
2023/09/12 02:06:45;;;;;;;3.40;3.20;;;;;;;17.96;61.81;99709.94;5084082;28;20192;-61
2023/09/12 02:09:12;;;;;;;4.83;3.00;;;;;;;18.11;61.28;99715.66;5092796;28;20240;-62
2023/09/12 02:11:39;;;;;;;3.10;2.50;;;;;;;18.19;61.27;99715.28;5092516;28;20194;-61
2023/09/12 02:14:05;;;;;;;3.30;2.70;;;;;;;18.22;61.04;99717.47;5091507;28;20218;-61
2023/09/12 02:16:32;;;;;;;3.87;2.60;;;;;;;18.26;60.92;99702.50;5071227;28;20199;-61
2023/09/12 02:19:00;;;;;;;3.63;2.80;;;;;;;18.37;60.69;99709.72;5072142;28;20263;-61
2023/09/12 02:21:27;;;;;;;4.70;2.53;;;;;;;18.43;60.38;99712.28;5071342;28;20231;-61
2023/09/12 02:23:53;;;;;;;8.67;3.50;;;;;;;18.49;60.30;99705.94;5071301;28;20196;-61
2023/09/12 02:26:20;;;;;;;5.40;3.30;;;;;;;18.45;60.36;99691.31;5070122;28;20194;-62
2023/09/12 02:28:47;;;;;;;7.90;2.60;;;;;;;18.56;59.85;99705.78;5071692;28;20211;-61
2023/09/12 02:31:14;;;;;;;5.03;2.80;;;;;;;18.51;60.34;99703.84;5071745;28;20193;-62
2023/09/12 02:33:41;;;;;;;5.73;3.90;;;;;;;18.42;61.02;99704.47;5071067;28;20223;-61
2023/09/12 02:36:09;;;;;;;6.60;3.10;;;;;;;18.31;60.89;99707.97;5071364;28;20656;-62
2023/09/12 02:38:35;;;;;;;8.10;3.60;;;;;;;18.20;61.37;99706.13;5070343;28;20192;-61
2023/09/12 02:41:03;;;;;;;10.83;3.10;;;;;;;18.14;62.13;99713.31;5071507;28;20239;-60
2023/09/12 02:43:31;;;;;;;5.90;3.50;;;;;;;18.07;62.94;99709.94;5071350;28;20207;-61
2023/09/12 02:45:57;;;;;;;4.67;3.20;;;;;;;18.18;62.61;99703.69;5071800;28;20198;-61
2023/09/12 02:48:24;;;;;;;7.73;3.40;;;;;;;18.30;62.42;99706.34;5073360;28;20195;-62
2023/09/12 02:50:51;;;;;;;4.00;3.40;;;;;;;18.37;61.80;99704.34;5090330;28;20277;-62
2023/09/12 02:53:19;;;;;;;5.10;3.57;;;;;;;18.43;61.63;99706.09;5089488;28;20228;-61
2023/09/12 02:55:45;;;;;;;10.97;3.60;;;;;;;18.49;61.49;99710.47;5090004;28;20190;-61
2023/09/12 02:58:12;;;;;;;5.47;3.60;;;;;;;18.53;61.68;99701.69;5074301;28;20196;-61
2023/09/12 03:00:40;;;;;;;5.77;3.70;;;;;;;18.61;61.50;99703.16;5068973;28;20216;-62
2023/09/12 03:03:08;;;;;;;7.93;3.40;;;;;;;18.66;61.29;99708.66;5069067;28;20315;-62
2023/09/12 03:05:35;;;;;;;6.83;3.47;;;;;;;18.71;61.59;99700.66;5068932;28;20199;-61
2023/09/12 03:08:03;;;;;;;3.77;3.40;;;;;;;18.74;61.45;99705.56;5069491;28;20249;-61
2023/09/12 03:10:31;;;;;;;6.10;3.50;;;;;;;18.75;62.54;99704.50;5069467;28;20736;-61
2023/09/12 03:12:57;;;;;;;5.67;3.40;;;;;;;18.78;61.25;99704.03;5071240;28;20286;-61
2023/09/12 03:15:24;;;;;;;11.67;3.67;;;;;;;18.78;61.55;99704.03;5070718;28;20192;-61
2023/09/12 03:17:51;;;;;;;7.47;3.50;;;;;;;18.84;61.40;99711.13;5070196;28;20256;-61
2023/09/12 03:20:17;;;;;;;8.47;3.83;;;;;;;18.89;61.52;99705.81;5083028;28;20248;-61
2023/09/12 03:22:45;;;;;;;6.20;3.57;;;;;;;18.92;61.29;99710.72;5090580;28;20194;-61
2023/09/12 03:25:11;;;;;;;5.33;3.50;;;;;;;18.89;61.37;99708.50;5090388;28;20201;-62
2023/09/12 03:27:39;;;;;;;7.80;3.60;;;;;;;18.80;61.63;99716.19;5092905;28;20201;-61
2023/09/12 03:30:07;;;;;;;11.97;3.70;;;;;;;18.76;61.54;99716.91;5094864;28;20195;-61
2023/09/12 03:32:34;;;;;;;6.77;3.57;;;;;;;18.69;62.32;99716.22;5080540;28;20273;-61
2023/09/12 03:35:01;;;;;;;3.40;3.10;;;;;;;18.65;62.80;99720.47;5074763;28;20253;-61
2023/09/12 03:37:28;;;;;;;7.87;3.90;;;;;;;18.73;62.40;99723.59;5073890;28;20687;-61
2023/09/12 03:39:55;;;;;;;7.90;3.57;;;;;;;18.77;62.13;99713.97;5075583;28;20202;-60
2023/09/12 03:42:22;;;;;;;4.83;3.20;;;;;;;18.79;62.47;99716.41;5079941;28;20248;-60
2023/09/12 03:44:50;;;;;;;5.20;3.30;;;;;;;18.78;62.35;99729.03;5093957;28;20282;-61
2023/09/12 03:47:16;;;;;;;5.67;3.53;;;;;;;18.69;62.63;99721.59;5094598;28;20195;-61
2023/09/12 03:49:43;;;;;;;7.03;3.70;;;;;;;18.69;63.13;99727.00;5093965;28;20740;-60
2023/09/12 03:52:09;;;;;;;4.00;3.67;;;;;;;18.70;62.66;99729.44;5093231;28;20685;-61
2023/09/12 03:54:36;;;;;;;6.60;3.97;;;;;;;18.74;63.03;99730.59;5093330;28;20277;-60
2023/09/12 03:57:03;;;;;;;4.10;3.63;;;;;;;18.73;62.93;99738.91;5094431;28;20196;-60
2023/09/12 03:59:30;;;;;;;8.30;3.50;;;;;;;18.66;63.15;99739.06;5094323;28;20200;-61
2023/09/12 04:01:58;;;;;;;7.40;4.07;;;;;;;18.67;62.79;99740.69;5094568;28;20220;-61
2023/09/12 04:04:24;;;;;;;9.33;4.50;;;;;;;18.70;62.62;99739.41;5090058;28;20567;-60
2023/09/12 04:06:51;;;;;;;10.20;4.40;;;;;;;18.64;62.52;99740.38;5075575;28;20201;-60
2023/09/12 04:09:18;;;;;;;8.93;4.33;;;;;;;18.52;62.47;99743.13;5094566;28;20191;-60
2023/09/12 04:11:44;;;;;;;8.57;3.73;;;;;;;18.46;64.04;99743.25;5094510;28;20193;-59
2023/09/12 04:14:11;;;;;;;11.93;4.27;;;;;;;18.47;63.91;99747.59;5094174;28;20407;-61
2023/09/12 04:16:38;;;;;;;7.70;4.00;;;;;;;18.53;63.80;99747.44;5093294;28;20196;-61
2023/09/12 04:19:06;;;;;;;12.27;4.47;;;;;;;18.61;63.13;99738.97;5093887;28;20189;-61
2023/09/12 04:21:33;;;;;;;7.83;4.40;;;;;;;18.76;63.22;99744.63;5094064;28;20241;-61
2023/09/12 04:23:59;;;;;;;18.73;3.80;;;;;;;19.11;64.31;99741.72;5094163;28;20200;-61
2023/09/12 04:26:26;;;;;;;12.80;3.30;;;;;;;19.75;63.10;99738.38;5074276;28;20216;-62
2023/09/12 04:28:53;;;;;;;7.93;3.43;;;;;;;20.45;60.26;99740.09;5073736;28;20249;-61
2023/09/12 04:31:19;;;;;;;9.30;3.60;;;;;;;21.13;57.37;99747.53;5073466;28;20196;-62
2023/09/12 04:33:46;;;;;;;6.40;3.40;;;;;;;21.64;53.63;99749.50;5073255;28;20330;-63
2023/09/12 04:36:14;;;;;;;11.57;3.80;;;;;;;22.11;51.40;99753.03;5085052;28;20199;-63
2023/09/12 04:38:41;;;;;;;5.40;4.00;;;;;;;22.37;49.23;99754.75;5090515;28;20667;-61
2023/09/12 04:41:08;;;;;;;8.70;3.50;;;;;;;22.78;49.97;99755.72;5093491;28;20227;-62
2023/09/12 04:43:35;;;;;;;8.80;3.67;;;;;;;23.08;48.17;99756.53;5093718;28;20192;-62
2023/09/12 04:46:01;;;;;;;10.30;3.10;;;;;;;23.57;47.69;99754.91;5094134;28;20244;-63
2023/09/12 04:48:28;;;;;;;21.63;3.43;;;;;;;24.02;44.84;99754.81;5081442;28;20201;-62
2023/09/12 04:50:56;;;;;;;8.97;3.30;;;;;;;24.06;43.87;99757.81;5096572;28;20208;-61
2023/09/12 04:53:24;;;;;;;11.73;3.33;;;;;;;24.54;43.44;99760.56;5092937;28;20767;-61
2023/09/12 04:55:53;;;;;;;5.30;3.20;;;;;;;24.97;41.28;99761.69;5094372;28;20198;-61
2023/09/12 04:58:20;;;;;;;8.07;3.40;;;;;;;25.13;39.71;99762.38;5088613;27;20615;-61
2023/09/12 05:00:47;;;;;;;4.47;3.40;;;;;;;24.86;39.84;99763.66;5087602;28;20192;-60
2023/09/12 05:03:14;;;;;;;4.67;3.37;;;;;;;24.74;39.87;99765.09;5079254;28;20257;-61
2023/09/12 05:05:41;;;;;;;4.33;3.00;;;;;;;24.40;40.66;99762.28;5080196;28;20196;-61
2023/09/12 05:08:07;;;;;;;4.83;3.03;;;;;;;24.44;42.42;99752.47;5081549;28;20251;-61
2023/09/12 05:10:36;;;;;;;9.77;2.83;;;;;;;24.64;40.90;99760.56;5082089;28;20199;-61
2023/09/12 05:13:03;;;;;;;4.20;2.80;;;;;;;24.71;41.26;99763.75;5077875;28;20226;-62
2023/09/12 05:15:30;;;;;;;4.97;2.77;;;;;;;24.97;40.36;99764.41;5086618;28;20194;-62
2023/09/12 05:17:56;;;;;;;5.90;2.90;;;;;;;24.91;40.06;99766.34;5081704;28;20196;-62
2023/09/12 05:20:23;;;;;;;11.17;3.23;;;;;;;24.86;40.73;99766.38;5081464;28;20552;-62
2023/09/12 05:22:50;;;;;;;17.93;3.70;;;;;;;25.07;40.18;99763.50;5092836;28;20194;-62
2023/09/12 05:25:16;;;;;;;8.50;3.63;;;;;;;25.24;39.21;99758.47;5085543;28;20336;-62
2023/09/12 05:27:44;;;;;;;8.40;3.33;;;;;;;25.02;39.18;99762.47;5081273;28;20253;-62
2023/09/12 05:30:12;;;;;;;10.63;3.43;;;;;;;24.83;40.06;99769.66;5075764;28;20784;-61
2023/09/12 05:32:38;;;;;;;11.03;2.90;;;;;;;24.61;40.62;99763.81;5080389;28;20198;-61
2023/09/12 05:35:06;;;;;;;7.73;3.07;;;;;;;24.61;40.68;99755.66;5092665;28;20226;-61
2023/09/12 05:37:32;;;;;;;3.63;2.40;;;;;;;24.77;41.30;99759.91;5093071;28;20197;-60
2023/09/12 05:39:59;;;;;;;11.57;2.90;;;;;;;25.18;39.89;99757.69;5084578;28;20198;-61
2023/09/12 05:42:26;;;;;;;7.97;3.50;;;;;;;25.62;38.43;99760.31;5090003;28;20187;-60
2023/09/12 05:44:54;;;;;;;5.30;2.40;;;;;;;25.53;38.17;99765.59;5092635;28;20662;-61
2023/09/12 05:47:20;;;;;;;5.27;3.03;;;;;;;25.80;37.86;99762.34;5092452;28;20631;-60
2023/09/12 05:49:47;;;;;;;5.37;2.80;;;;;;;25.73;37.45;99753.69;5092088;28;20706;-62
2023/09/12 05:52:14;;;;;;;7.07;3.00;;;;;;;25.72;37.42;99757.50;5091987;28;20210;-61
2023/09/12 05:54:41;;;;;;;19.70;3.00;;;;;;;25.75;37.19;99755.03;5090907;28;20215;-60
2023/09/12 05:57:09;;;;;;;11.00;3.07;;;;;;;25.69;38.30;99749.91;5088194;28;20225;-59
2023/09/12 05:59:38;;;;;;;5.93;2.90;;;;;;;26.21;37.31;99741.72;5079720;28;20203;-60
2023/09/12 06:02:08;;;;;;;3.13;2.83;;;;;;;26.83;36.41;99749.59;5088220;28;20274;-60
2023/09/12 06:04:34;;;;;;;7.13;3.07;;;;;;;26.80;35.62;99755.63;5079769;28;20581;-59
2023/09/12 06:07:02;;;;;;;12.10;2.80;;;;;;;26.84;35.83;99753.94;5076430;28;20192;-59
2023/09/12 06:09:29;;;;;;;5.73;2.93;;;;;;;27.11;35.46;99751.34;5092293;28;20210;-59
2023/09/12 06:11:56;;;;;;;6.20;2.70;;;;;;;27.12;35.20;99767.38;5081041;28;20287;-59
2023/09/12 06:14:22;;;;;;;6.10;2.90;;;;;;;27.31;35.08;99754.56;5085855;28;20722;-59
2023/09/12 06:16:49;;;;;;;6.90;2.60;;;;;;;27.71;34.73;99755.75;5091324;28;20670;-60
2023/09/12 06:19:19;;;;;;;8.33;3.20;;;;;;;27.80;33.94;99762.13;5092004;28;20195;-60
2023/09/12 06:21:46;;;;;;;5.63;3.03;;;;;;;28.03;33.76;99763.91;5090927;28;20206;-60
2023/09/12 06:24:14;;;;;;;6.87;3.37;;;;;;;27.79;34.08;99760.53;5091860;28;20199;-60
2023/09/12 06:26:41;;;;;;;8.07;3.30;;;;;;;27.92;34.15;99762.47;5091787;28;20658;-60
2023/09/12 06:29:08;;;;;;;8.67;2.90;;;;;;;28.35;33.86;99766.53;5090311;28;20199;-60
2023/09/12 06:31:35;;;;;;;9.90;3.40;;;;;;;28.39;34.25;99764.81;5090886;28;20576;-61
2023/09/12 06:34:01;;;;;;;9.47;3.27;;;;;;;28.91;34.46;99769.69;5091994;28;20257;-61
2023/09/12 06:36:30;;;;;;;10.33;2.90;;;;;;;29.31;34.17;99768.72;5091751;28;20328;-60
2023/09/12 06:38:56;;;;;;;7.43;3.40;;;;;;;29.72;33.43;99774.78;5090557;28;20264;-62
2023/09/12 06:41:23;;;;;;;8.43;2.87;;;;;;;29.79;31.67;99780.63;5070915;28;20224;-62
2023/09/12 06:43:50;;;;;;;8.30;2.90;;;;;;;30.04;31.96;99776.41;5086265;28;20584;-61
2023/09/12 06:46:17;;;;;;;9.43;3.37;;;;;;;30.17;31.13;99773.56;5080969;28;20217;-61
2023/09/12 06:48:44;;;;;;;6.00;2.53;;;;;;;30.10;30.45;99770.47;5089160;28;20278;-61
2023/09/12 06:51:11;;;;;;;6.17;2.47;;;;;;;30.16;30.41;99777.44;5076696;28;20203;-61
2023/09/12 06:53:39;;;;;;;5.00;2.37;;;;;;;30.16;30.30;99782.91;5072554;28;20211;-61
2023/09/12 06:56:06;;;;;;;4.27;2.47;;;;;;;30.25;29.95;99769.25;5085118;28;20199;-63
2023/09/12 06:58:33;;;;;;;5.03;2.00;;;;;;;30.22;29.84;99772.63;5090419;28;20192;-62
2023/09/12 07:01:03;;;;;;;5.50;2.00;;;;;;;30.28;29.66;99777.63;5090291;28;20260;-63
2023/09/12 07:03:30;;;;;;;2.87;1.77;;;;;;;30.12;30.20;99772.88;5078816;28;20194;-63
2023/09/12 07:05:57;;;;;;;3.60;1.73;;;;;;;30.02;29.66;99775.91;5089373;28;20688;-63
2023/09/12 07:08:24;;;;;;;4.93;2.00;;;;;;;29.97;29.72;99782.31;5085140;28;20245;-62
2023/09/12 07:10:54;;;;;;;4.93;2.07;;;;;;;29.88;30.55;99778.72;5091120;28;20199;-62
2023/09/12 07:13:21;;;;;;;8.23;2.10;;;;;;;30.09;30.52;99777.03;5090711;28;20256;-62
2023/09/12 07:15:48;;;;;;;3.23;1.80;;;;;;;30.19;30.50;99782.28;5076770;28;20714;-63
2023/09/12 07:18:15;;;;;;;2.53;2.07;;;;;;;30.17;30.36;99775.50;5074480;28;20183;-63
2023/09/12 07:20:42;;;;;;;4.77;2.00;;;;;;;30.22;30.04;99773.44;5078048;28;20183;-62
2023/09/12 07:23:09;;;;;;;3.10;1.40;;;;;;;30.21;30.28;99779.22;5089041;28;20252;-63
2023/09/12 07:25:40;;;;;;;1.67;1.57;;;;;;;30.16;31.04;99774.69;5081601;28;20200;-63
2023/09/12 07:28:08;;;;;;;2.93;1.70;;;;;;;29.87;31.25;99771.66;5075545;28;20291;-63
2023/09/12 07:30:35;;;;;;;8.93;2.63;;;;;;;29.78;31.52;99768.06;5088012;28;20187;-63
2023/09/12 07:33:01;;;;;;;4.60;1.97;;;;;;;29.98;31.58;99767.50;5080498;28;20643;-63
2023/09/12 07:35:28;;;;;;;13.10;2.97;;;;;;;29.93;32.14;99762.16;5090733;28;20281;-64
2023/09/12 07:37:55;;;;;;;2.07;1.83;;;;;;;29.81;31.91;99759.22;5090769;28;20570;-63
2023/09/12 07:40:21;;;;;;;5.90;1.70;;;;;;;30.02;31.75;99762.19;5090120;28;20654;-64
2023/09/12 07:42:48;;;;;;;6.27;2.00;;;;;;;29.80;32.51;99760.31;5088755;28;20635;-64
2023/09/12 07:45:16;;;;;;;3.83;1.87;;;;;;;29.93;31.89;99764.88;5088386;28;20659;-64
2023/09/12 07:47:43;;;;;;;2.43;1.60;;;;;;;30.01;31.63;99761.38;5082365;28;20204;-63
2023/09/12 07:50:10;;;;;;;12.20;3.13;;;;;;;30.19;31.83;99756.81;5089354;28;20732;-64
2023/09/12 07:52:37;;;;;;;7.70;1.97;;;;;;;30.40;31.75;99764.13;5087291;28;20283;-65
2023/09/12 07:55:04;;;;;;;4.87;2.03;;;;;;;30.45;31.24;99755.72;5079005;28;20215;-64
2023/09/12 07:57:31;;;;;;;3.00;1.63;;;;;;;30.53;30.96;99756.91;5072601;28;20192;-66
2023/09/12 07:59:58;;;;;;;5.33;2.20;;;;;;;30.75;30.68;99757.59;5075064;28;20238;-66
2023/09/12 08:02:26;;;;;;;2.30;2.07;;;;;;;31.11;29.97;99757.28;5070167;28;20747;-66
2023/09/12 08:04:53;;;;;;;7.23;2.10;;;;;;;31.39;29.57;99759.34;5090790;28;20260;-64
2023/09/12 08:07:20;;;;;;;2.53;2.33;;;;;;;31.57;29.17;99755.44;5082537;28;20232;-64
2023/09/12 08:09:52;;;;;;;3.90;2.10;;;;;;;31.65;29.71;99746.34;5082910;28;20253;-65
2023/09/12 08:12:20;;;;;;;3.10;2.20;;;;;;;31.87;29.07;99751.66;5080692;28;20199;-66
2023/09/12 08:14:46;;;;;;;2.97;2.27;;;;;;;31.77;28.94;99748.44;5093973;28;20695;-65
2023/09/12 08:17:14;;;;;;;6.00;2.23;;;;;;;31.51;28.73;99747.69;5090254;28;20234;-65
2023/09/12 08:19:42;;;;;;;3.57;1.87;;;;;;;31.62;28.90;99741.53;5081808;28;20233;-65
2023/09/12 08:22:11;;;;;;;3.77;1.97;;;;;;;31.61;28.70;99745.38;5074054;28;20198;-66
2023/09/12 08:24:38;;;;;;;3.40;1.97;;;;;;;31.68;29.19;99740.19;5081859;28;20256;-65
2023/09/12 08:27:06;;;;;;;2.67;2.10;;;;;;;31.42;28.85;99736.72;5093579;28;20283;-66
2023/09/12 08:29:34;;;;;;;3.20;3.00;;;;;;;31.41;28.93;99740.63;5093898;28;20187;-64
2023/09/12 08:32:01;;;;;;;5.07;2.37;;;;;;;31.16;29.06;99743.38;5077887;28;20245;-64
2023/09/12 08:34:28;;;;;;;5.00;2.30;;;;;;;30.99;29.38;99738.69;5086430;28;20234;-63
2023/09/12 08:36:56;;;;;;;4.43;1.80;;;;;;;30.80;29.39;99735.47;5089949;28;20252;-64
2023/09/12 08:39:25;;;;;;;4.73;1.73;;;;;;;30.75;29.13;99732.09;5093538;28;20192;-63
2023/09/12 08:41:52;;;;;;;9.57;2.10;;;;;;;30.79;28.99;99728.38;5091934;28;20245;-65
2023/09/12 08:44:20;;;;;;;4.00;1.77;;;;;;;30.81;29.08;99730.78;5085971;28;20202;-64
2023/09/12 08:46:48;;;;;;;4.07;2.17;;;;;;;30.82;28.72;99730.47;5077974;28;20261;-64
2023/09/12 08:49:15;;;;;;;3.67;1.80;;;;;;;30.99;29.02;99727.72;5082597;28;20257;-64
2023/09/12 08:51:42;;;;;;;4.53;2.40;;;;;;;31.14;29.29;99718.16;5078922;28;20187;-64
2023/09/12 08:54:10;;;;;;;8.03;4.73;;;;;;;31.32;28.75;99725.28;5081504;28;20184;-65
2023/09/12 08:56:42;;;;;;;20.63;4.00;;;;;;;31.34;28.45;99723.81;5093792;28;20218;-65
2023/09/12 08:59:11;;;;;;;4.27;1.93;;;;;;;31.31;28.53;99718.97;5104903;28;20183;-64
2023/09/12 09:01:39;;;;;;;1.60;1.50;;;;;;;31.01;28.67;99722.72;5079831;28;20274;-64
2023/09/12 09:04:06;;;;;;;6.07;2.47;;;;;;;31.15;29.25;99726.09;5078995;28;20582;-63
2023/09/12 09:06:37;;;;;;;5.20;1.67;;;;;;;31.35;28.29;99719.94;5092458;28;20195;-64
2023/09/12 09:09:05;;;;;;;3.33;1.70;;;;;;;31.42;27.87;99720.25;5080184;28;20198;-64
2023/09/12 09:11:34;;;;;;;3.93;1.80;;;;;;;31.62;28.05;99711.31;5092263;28;20613;-64
2023/09/12 09:14:02;;;;;;;41.47;4.80;;;;;;;31.87;28.02;99710.41;5086806;28;20192;-63
2023/09/12 09:16:29;;;;;;;7.40;2.60;;;;;;;32.03;27.85;99714.22;5077512;28;20222;-64
2023/09/12 09:18:57;;;;;;;2.23;2.10;;;;;;;32.24;27.63;99712.31;5077200;28;20205;-64
2023/09/12 09:21:25;;;;;;;4.50;2.73;;;;;;;32.44;27.63;99714.31;5088127;28;20196;-64
2023/09/12 09:23:53;;;;;;;3.70;2.40;;;;;;;32.59;27.42;99708.19;5080534;28;20183;-65
2023/09/12 09:26:20;;;;;;;4.80;2.40;;;;;;;32.70;26.93;99705.84;5088257;28;20236;-64
2023/09/12 09:29:04;;;;;;;5.37;2.30;;;;;;;32.73;26.91;99700.50;5090449;28;20195;-64
2023/09/12 09:31:31;;;;;;;2.97;1.97;;;;;;;32.29;27.00;99692.06;5079286;28;20180;-64
2023/09/12 09:33:59;;;;;;;2.20;2.00;;;;;;;32.21;26.95;99693.72;5075986;28;20191;-64
2023/09/12 09:36:27;;;;;;;5.23;2.30;;;;;;;32.32;27.19;99683.97;5092428;28;20280;-64
2023/09/12 09:38:53;;;;;;;3.20;2.10;;;;;;;32.34;26.82;99687.19;5091858;28;20248;-63
2023/09/12 09:41:21;;;;;;;3.50;1.90;;;;;;;31.93;27.92;99689.84;5088105;28;20224;-64
2023/09/12 09:43:51;;;;;;;5.03;2.23;;;;;;;31.88;27.67;99681.78;5092354;28;20191;-63
2023/09/12 09:46:18;;;;;;;5.73;2.73;;;;;;;31.70;28.01;99683.00;5081052;28;20199;-63
2023/09/12 09:48:50;;;;;;;3.10;2.00;;;;;;;31.64;28.26;99659.56;5074633;28;20207;-64
2023/09/12 09:51:16;;;;;;;4.07;1.90;;;;;;;31.91;28.26;99678.38;5090635;28;20299;-65
2023/09/12 09:53:43;;;;;;;4.37;2.90;;;;;;;32.13;27.94;99667.09;5080265;28;20188;-64
2023/09/12 09:56:11;;;;;;;5.53;3.97;;;;;;;32.20;27.56;99678.38;5092361;28;20310;-63
2023/09/12 09:58:42;;;;;;;3.13;1.87;;;;;;;32.08;27.10;99678.28;5094997;28;20285;-64
2023/09/12 10:01:13;;;;;;;4.20;2.17;;;;;;;31.74;27.29;99678.44;5091929;28;20183;-64
2023/09/12 10:03:40;;;;;;;3.77;1.97;;;;;;;31.79;27.08;99675.53;5090720;28;20187;-63
2023/09/12 10:06:09;;;;;;;2.60;2.00;;;;;;;31.54;27.30;99672.88;5074546;28;20268;-65
2023/09/12 10:08:38;;;;;;;5.60;2.20;;;;;;;31.41;27.36;99671.97;5079786;28;20187;-67
2023/09/12 10:11:05;;;;;;;6.17;2.20;;;;;;;31.63;26.99;99666.22;5091484;28;20195;-67
2023/09/12 10:13:34;;;;;;;4.20;1.87;;;;;;;31.58;27.52;99660.09;5091932;28;20199;-67
2023/09/12 10:16:04;;;;;;;3.40;1.97;;;;;;;31.71;25.97;99657.13;5091746;28;20279;-67
2023/09/12 10:18:41;;;;;;;2.33;2.13;;;;;;;31.82;25.62;99660.31;5087308;28;20278;-65
2023/09/12 10:21:13;;;;;;;6.23;2.07;;;;;;;31.76;27.00;99659.72;5090248;28;20634;-64
2023/09/12 10:23:44;;;;;;;4.83;2.03;;;;;;;31.80;25.98;99657.91;5091402;28;20753;-65
2023/09/12 10:26:13;;;;;;;5.50;2.00;;;;;;;31.77;26.95;99650.31;5091531;28;20192;-65
2023/09/12 10:28:41;;;;;;;9.10;3.13;;;;;;;31.93;26.64;99643.13;5090641;28;20192;-64
2023/09/12 10:31:09;;;;;;;17.43;3.23;;;;;;;32.05;27.64;99651.44;5091226;28;20195;-63
2023/09/12 10:33:37;;;;;;;5.27;2.63;;;;;;;31.96;26.84;99644.38;5090977;28;20195;-67
2023/09/12 10:36:06;;;;;;;7.83;2.43;;;;;;;32.18;27.48;99644.88;5087515;28;20264;-65
2023/09/12 10:38:34;;;;;;;2.97;2.30;;;;;;;32.30;26.97;99635.97;5070894;28;20192;-68
2023/09/12 10:41:03;;;;;;;8.17;2.50;;;;;;;32.21;26.33;99633.22;5088173;28;20215;-66
2023/09/12 10:43:33;;;;;;;5.27;3.03;;;;;;;32.34;26.17;99643.19;5090065;28;20199;-67
2023/09/12 10:46:03;;;;;;;7.80;3.00;;;;;;;32.17;26.24;99624.03;5075368;28;20195;-66
2023/09/12 10:48:30;;;;;;;7.17;3.10;;;;;;;32.17;26.40;99626.78;5071277;28;20196;-67
2023/09/12 10:51:03;;;;;;;5.23;3.00;;;;;;;32.18;26.17;99627.59;5087233;28;20199;-68
2023/09/12 10:53:33;;;;;;;3.53;2.57;;;;;;;32.35;26.34;99622.00;5077006;28;20271;-66
2023/09/12 10:56:01;;;;;;;4.40;2.87;;;;;;;32.56;26.61;99617.28;5072120;28;20282;-66
2023/09/12 10:58:27;;;;;;;3.60;2.97;;;;;;;31.94;26.62;99608.19;5085417;28;20274;-65
2023/09/12 11:01:22;;;;;;;6.63;3.13;;;;;;;31.92;27.00;99599.47;5086786;28;20245;-64
2023/09/12 11:03:49;;;;;;;5.60;2.30;;;;;;;31.64;27.06;99606.59;5080667;28;20247;-65
2023/09/12 11:06:24;;;;;;;8.33;3.00;;;;;;;31.56;26.80;99599.97;5078233;28;20261;-67
2023/09/12 11:09:19;;;;;;;4.47;3.00;;;;;;;31.62;27.29;99587.69;5075317;28;20445;-67
2023/09/12 11:11:47;;;;;;;2.90;2.60;;;;;;;31.75;27.30;99592.13;5073256;28;20685;-67
2023/09/12 11:14:16;;;;;;;3.27;2.97;;;;;;;31.89;27.08;99595.44;5072306;28;20226;-68
2023/09/12 11:16:43;;;;;;;3.87;3.07;;;;;;;32.06;26.77;99587.06;5072145;28;20298;-68
2023/09/12 11:19:13;;;;;;;6.40;2.90;;;;;;;32.05;26.85;99590.97;5077861;28;20192;-67
2023/09/12 11:21:41;;;;;;;9.40;2.90;;;;;;;32.07;26.92;99579.66;5071247;28;20283;-68
2023/09/12 11:24:08;;;;;;;6.00;2.70;;;;;;;32.13;26.91;99581.84;5061900;28;20196;-69
2023/09/12 11:26:35;;;;;;;4.63;2.93;;;;;;;32.10;26.68;99582.53;5076231;28;20199;-64
2023/09/12 11:29:11;;;;;;;3.43;2.60;;;;;;;31.96;27.02;99579.25;5081311;28;20205;-67
2023/09/12 11:31:41;;;;;;;4.93;2.57;;;;;;;31.89;26.79;99580.91;5090669;28;20217;-66
2023/09/12 11:34:10;;;;;;;4.00;3.13;;;;;;;31.78;26.94;99580.50;5087493;28;20211;-66